Impacts TAF Board INFO
FOR SITUATIONAL AWARENESS. NOT TO BE USED FOR FLIGHT PLANNING PURPOSES.
IDs:

KMEI - Meridian/Key Fld, MS, US

Issued at 1218 UTC 23 Feb 2018
Updated at 1612 UTC 23 Feb 2018
Potential Impact None Slight Moderate High
Time<<24/05Z 24/06Z 24/07Z 24/08Z 24/09Z 24/10Z 24/11Z 24/12Z 24/13Z 24/14Z 24/15Z 24/16Z 24/17Z>>
Type PRVL PRVL PRVL PRVL PRVL PRVL PRVL
VIS 4 4 4 4 4 4 4
CIG -- -- -- -- -- -- --
Cover SCT SCT SCT SCT SCT SCT SCT
FltCat MVFR MVFR MVFR MVFR MVFR MVFR MVFR
WX BR VCSH BR VCSH BR VCSH BR VCSH BR VCSH BR VCSH BR VCSH
WDir 160 160 160 160 160 160 160
WSpd 5 5 5 5 5 5 5
WGst -- -- -- -- -- -- --

Raw TAF
KMEI 231218Z 2312/2412 18005KT P6SM OVC015
  TEMPO 2313/2315 3SM BR BKN010
  FM231500 17005KT P6SM BKN025
  FM231800 17006KT P6SM VCSH BKN035
  FM232100 16008KT P6SM VCTS BKN035CB
  TEMPO 2400/2403 5SM RA BR OVC025
  FM240400 16005KT 4SM BR VCSH SCT015


METAR Board
Radar Display
Forecast Discussion

FOR SITUATIONAL AWARENESS. NOT TO BE USED FOR FLIGHT PLANNING PURPOSES.